KADG

Lenawee County Airport

Adrian, Michigan, USA
METAR KADG 190053Z AUTO 21005KT 10SM CLR M02/M05 A3014 RMK AO2 SLP220 T10221050 TSNO
Observed Flight Rules
Dec-19 @ 00:53 UTC (29 minutes ago) Visual Flight Rules
Wind Visibility Clouds
210° at 5 knots 10 miles
  • Clear skies
Temperatures Readings
Current -2°C / 28°F
Dewpoint -5°C / 23°F
Humidity 80%
Altimeter 30.14" Hg
Pressure 1022 hPa
Elevation 241
METAR KADG 190053Z AUTO 21005KT 10SM CLR M02/M05 A3014 RMK AO2 SLP220 T10221050 TSNO
Observed Flight Rules
Dec-19 @ 00:53 UTC
(29 minutes ago)
VFR
Wind Visibility
210° at 5 knots 10 miles
Clouds
  • Clear skies
Temperature Dewpoint
-2°C / 28°F -5°C / 23°F
Humidity Altimeter Pressure
80% 30.14" Hg 1022 hPa